createdAt,value
2023-05-19T04:03:34.452Z,2.40
2023-05-19T04:07:46.976Z,3.00
2023-05-19T04:11:58.574Z,2.65
2023-05-19T04:16:10.220Z,2.70
2023-05-19T04:20:21.794Z,2.40
2023-05-19T04:24:33.826Z,2.75
2023-05-19T04:28:45.814Z,2.78
2023-05-19T04:32:58.198Z,2.75
2023-05-19T04:37:10.353Z,2.72
2023-05-19T04:41:22.967Z,2.60
2023-05-19T04:45:34.921Z,2.28
2023-05-19T04:49:48.354Z,2.70
2023-05-19T04:54:00.237Z,2.47
2023-05-19T04:58:12.020Z,2.40
2023-05-19T05:02:23.858Z,2.15
2023-05-19T05:06:38.619Z,2.75
2023-05-19T05:10:52.680Z,2.55
2023-05-19T05:15:06.892Z,2.50
2023-05-19T05:19:18.784Z,2.42
2023-05-19T05:23:30.702Z,2.50
2023-05-19T05:27:42.735Z,2.78
2023-05-19T05:31:54.489Z,2.35
2023-05-19T05:36:07.654Z,2.33
2023-05-19T05:40:25.872Z,2.40
2023-05-19T05:44:38.389Z,2.30
2023-05-19T05:48:51.542Z,1.88
2023-05-19T05:53:06.517Z,2.58
2023-05-19T05:57:19.569Z,2.20
2023-05-19T06:01:33.592Z,2.00
2023-05-19T06:05:46.861Z,2.42
2023-05-19T06:09:58.514Z,3.08
2023-05-19T06:14:10.566Z,2.33
2023-05-19T06:18:51.358Z,2.00
2023-05-19T06:23:03.442Z,2.40
2023-05-19T06:27:15.570Z,2.35
2023-05-19T06:31:29.003Z,2.50
2023-05-19T06:35:43.716Z,2.40
2023-05-19T06:39:55.473Z,2.60
2023-05-19T06:44:08.985Z,2.55
2023-05-19T06:48:20.542Z,2.60
2023-05-19T06:52:32.824Z,2.70
2023-05-19T06:56:46.221Z,2.40
2023-05-19T07:00:59.396Z,2.78
2023-05-19T07:05:16.693Z,2.30
2023-05-19T07:09:33.291Z,2.35
2023-05-19T07:13:44.927Z,2.55
2023-05-19T07:17:58.671Z,2.03
2023-05-19T07:22:10.880Z,2.50
2023-05-19T07:26:22.720Z,2.33
2023-05-19T07:30:34.495Z,2.90
2023-05-19T07:34:46.368Z,2.00
2023-05-19T07:38:57.997Z,2.70
2023-05-19T07:43:09.564Z,2.47
2023-05-19T07:47:21.121Z,2.20
2023-05-19T07:51:33.161Z,2.38
2023-05-19T07:55:45.206Z,2.47
2023-05-19T07:59:56.860Z,2.20
2023-05-19T08:04:11.924Z,2.33
2023-05-19T08:08:24.743Z,2.15
2023-05-19T08:12:36.634Z,2.88
2023-05-19T08:16:50.221Z,2.40
2023-05-19T08:21:05.431Z,2.72
2023-05-19T08:25:17.517Z,2.45
2023-05-19T08:34:21.166Z,2.55
2023-05-19T08:38:33.376Z,2.50
2023-05-19T08:42:46.483Z,2.35
2023-05-19T08:47:03.514Z,2.58
2023-05-19T08:51:26.141Z,2.63
2023-05-19T08:55:50.209Z,2.85
2023-05-19T09:00:04.404Z,2.60
2023-05-19T09:04:17.036Z,2.60
2023-05-19T09:08:28.901Z,2.72
2023-05-19T09:12:41.793Z,2.63
2023-05-19T09:16:54.052Z,2.88
2023-05-19T09:21:07.322Z,2.70
2023-05-19T09:25:19.639Z,2.72
2023-05-19T09:29:31.479Z,2.70
2023-05-19T09:33:45.587Z,2.78
2023-05-19T09:37:57.736Z,2.80
2023-05-19T09:42:09.276Z,2.90
2023-05-19T09:46:28.284Z,2.50
2023-05-19T09:50:40.223Z,2.90
2023-05-19T09:54:52.161Z,2.60
2023-05-19T09:59:04.068Z,3.20
2023-05-19T10:03:17.776Z,2.70
2023-05-19T10:07:29.811Z,2.72
2023-05-19T10:11:41.876Z,2.90
2023-05-19T10:15:58.824Z,2.72
2023-05-19T10:20:16.123Z,2.65
2023-05-19T10:24:27.803Z,2.47
2023-05-19T10:28:42.940Z,2.70
2023-05-19T10:32:57.175Z,2.35
2023-05-19T10:37:20.557Z,2.30
2023-05-19T10:41:41.498Z,2.40
2023-05-19T10:45:54.630Z,2.28
2023-05-19T10:50:07.275Z,2.70
2023-05-19T10:54:40.683Z,2.58
2023-05-19T10:58:52.949Z,2.50
2023-05-19T11:03:14.743Z,2.35
2023-05-19T11:07:26.536Z,1.90
2023-05-19T11:11:48.176Z,1.85
2023-05-19T11:16:07.616Z,2.05
2023-05-19T11:20:30.624Z,2.03
2023-05-19T11:24:50.568Z,2.00
2023-05-19T11:29:02.321Z,1.65
2023-05-19T11:33:15.292Z,1.83
2023-05-19T11:37:29.695Z,2.00
2023-05-19T11:41:41.613Z,2.03
2023-05-19T11:46:14.452Z,1.80
2023-05-19T11:50:26.641Z,1.60
2023-05-19T11:54:39.308Z,1.60
2023-05-19T11:58:53.284Z,1.90
2023-05-19T12:03:05.623Z,1.60
2023-05-19T12:07:19.301Z,1.90
2023-05-19T12:11:31.762Z,1.70
2023-05-19T12:15:43.511Z,1.50
2023-05-19T12:19:55.164Z,2.30
2023-05-19T12:24:07.104Z,1.70
2023-05-19T12:28:19.547Z,1.80
2023-05-19T12:32:34.174Z,1.55
2023-05-19T12:36:46.548Z,1.90
2023-05-19T12:41:01.070Z,1.73
2023-05-19T12:45:12.615Z,1.80
2023-05-19T12:49:24.233Z,2.00
2023-05-19T12:53:37.520Z,2.10
2023-05-19T12:57:51.843Z,2.03
2023-05-19T13:02:03.549Z,2.00
2023-05-19T13:06:15.198Z,1.50
2023-05-19T13:10:27.713Z,1.60
2023-05-19T13:14:41.756Z,2.03
2023-05-19T13:18:53.439Z,1.90
2023-05-19T13:23:05.804Z,1.48
2023-05-19T13:27:17.445Z,2.10
2023-05-19T13:31:28.993Z,1.65
2023-05-19T13:35:40.556Z,1.98
2023-05-19T13:39:52.301Z,1.83
2023-05-19T13:44:03.913Z,1.80
2023-05-19T13:48:15.623Z,1.80
2023-05-19T13:52:58.360Z,1.80
2023-05-19T13:56:58.681Z,1.88
2023-05-19T14:01:10.313Z,1.90
2023-05-19T14:05:21.904Z,1.88
2023-05-19T14:09:33.930Z,1.80
2023-05-19T14:13:46.208Z,1.95
2023-05-19T14:17:58.973Z,2.00
2023-05-19T14:22:10.753Z,1.90
2023-05-19T14:26:22.480Z,2.40
2023-05-19T14:30:34.356Z,1.58
2023-05-19T14:34:46.144Z,1.90
2023-05-19T14:38:57.755Z,1.90
2023-05-19T14:43:09.591Z,1.90
2023-05-19T14:47:21.342Z,1.63
2023-05-19T14:51:32.985Z,1.83
2023-05-19T14:55:44.590Z,1.65
2023-05-19T14:59:56.398Z,1.98
2023-05-19T15:04:08.065Z,1.80
2023-05-19T15:08:19.637Z,2.22
2023-05-19T15:12:31.258Z,1.88
2023-05-19T15:16:43.013Z,1.92
2023-05-19T15:20:54.571Z,2.00
2023-05-19T15:25:06.734Z,1.98
2023-05-19T15:29:18.291Z,2.35
2023-05-19T15:33:29.867Z,1.85
2023-05-19T15:37:41.472Z,2.03
2023-05-19T15:41:53.178Z,1.63
2023-05-19T15:46:05.238Z,1.85
2023-05-19T15:50:17.099Z,2.17
2023-05-19T15:54:28.837Z,2.22
2023-05-19T15:58:40.481Z,1.90
2023-05-19T16:02:52.096Z,2.00
2023-05-19T16:07:04.356Z,2.00
2023-05-19T16:11:20.572Z,2.13
2023-05-19T16:15:32.136Z,1.65
2023-05-19T16:19:43.708Z,2.10
2023-05-19T16:23:55.339Z,1.70
2023-05-19T16:28:07.033Z,2.00
2023-05-19T16:32:18.630Z,1.90
2023-05-19T16:36:30.194Z,1.90
2023-05-19T16:40:41.775Z,2.08
2023-05-19T16:44:53.341Z,2.08
2023-05-19T16:49:05.970Z,2.10
2023-05-19T16:53:17.533Z,1.90
2023-05-19T16:57:29.080Z,1.85
2023-05-19T17:01:40.873Z,1.98
2023-05-19T17:05:52.544Z,2.13
2023-05-19T17:10:04.420Z,2.53
2023-05-19T17:14:16.039Z,2.30
2023-05-19T17:18:28.195Z,1.90
2023-05-19T17:22:39.784Z,2.00
2023-05-19T17:26:51.428Z,2.00
2023-05-19T17:31:09.991Z,1.98
2023-05-19T17:35:21.582Z,2.20
2023-05-19T17:39:33.228Z,1.90
2023-05-19T17:43:44.903Z,2.05
2023-05-19T17:47:56.576Z,1.77
2023-05-19T17:52:08.782Z,2.13
2023-05-19T17:56:22.025Z,1.77
2023-05-19T18:00:34.169Z,2.50
2023-05-19T18:04:46.508Z,2.50
2023-05-19T18:09:01.040Z,2.15
2023-05-19T18:13:15.424Z,2.17
2023-05-19T18:17:27.064Z,1.90
2023-05-19T18:21:38.639Z,2.30
2023-05-19T18:25:51.711Z,2.20
2023-05-19T18:30:03.370Z,2.10
2023-05-19T18:34:14.939Z,2.15
2023-05-19T18:38:26.554Z,2.47
2023-05-19T18:42:38.078Z,2.20
2023-05-19T18:46:49.746Z,2.33
2023-05-19T18:51:03.420Z,2.35
2023-05-19T18:55:15.011Z,2.25
2023-05-19T18:59:26.793Z,2.70
2023-05-19T19:03:38.391Z,2.88
2023-05-19T19:07:50.197Z,3.08
2023-05-19T19:12:02.035Z,3.80
2023-05-19T19:16:13.692Z,3.65
2023-05-19T19:20:25.268Z,5.30
2023-05-19T19:24:36.936Z,5.18
2023-05-19T19:28:48.494Z,5.07
2023-05-19T19:33:00.222Z,4.70
2023-05-19T19:37:14.290Z,4.00
2023-05-19T19:41:28.030Z,3.80
2023-05-19T19:45:39.577Z,3.47
2023-05-19T19:49:51.325Z,3.30
2023-05-19T19:54:03.728Z,3.92
2023-05-19T19:58:15.364Z,3.28
2023-05-19T20:02:27.007Z,3.33
2023-05-19T20:06:38.726Z,4.35
2023-05-19T20:10:50.562Z,5.97
2023-05-19T20:15:02.130Z,5.72
2023-05-19T20:19:13.748Z,5.22
2023-05-19T20:23:25.353Z,5.05
2023-05-19T20:27:36.908Z,4.38
2023-05-19T20:31:48.466Z,4.78
2023-05-19T20:36:00.242Z,3.72
2023-05-19T20:40:12.442Z,4.00
2023-05-19T20:44:24.093Z,3.85
2023-05-19T20:48:35.919Z,3.58
2023-05-19T20:52:47.619Z,3.42
2023-05-19T20:56:59.413Z,2.85
2023-05-19T21:01:11.264Z,2.80
2023-05-19T21:05:23.016Z,2.90
2023-05-19T21:09:34.676Z,3.28
2023-05-19T21:13:46.264Z,2.55
2023-05-19T21:17:57.884Z,2.47
2023-05-19T21:22:09.681Z,2.67
2023-05-19T21:26:22.183Z,2.83
